sensor_id;sensor_type;location;lat;lon;timestamp;pressure;altitude;pressure_sealevel;temperature;humidity
31346;BME280;21711;49.708;18.568;2023-04-26T00:02:20;96883.09;;;8.17;87.22
31346;BME280;21711;49.708;18.568;2023-04-26T00:04:52;96893.66;;;8.01;87.19
31346;BME280;21711;49.708;18.568;2023-04-26T00:07:25;96888.91;;;8.14;87.72
31346;BME280;21711;49.708;18.568;2023-04-26T00:09:54;96894.97;;;8.04;87.61
31346;BME280;21711;49.708;18.568;2023-04-26T00:12:22;96894.75;;;7.80;87.62
31346;BME280;21711;49.708;18.568;2023-04-26T00:14:49;96893.94;;;7.89;86.17
31346;BME280;21711;49.708;18.568;2023-04-26T00:17:17;96902.63;;;7.90;85.62
31346;BME280;21711;49.708;18.568;2023-04-26T00:19:44;96897.59;;;8.09;85.42
31346;BME280;21711;49.708;18.568;2023-04-26T00:22:13;96898.13;;;7.90;85.39
31346;BME280;21711;49.708;18.568;2023-04-26T00:24:41;96897.63;;;7.78;86.40
31346;BME280;21711;49.708;18.568;2023-04-26T00:27:09;96888.66;;;7.89;85.23
31346;BME280;21711;49.708;18.568;2023-04-26T00:29:36;96893.94;;;8.15;86.09
31346;BME280;21711;49.708;18.568;2023-04-26T00:32:04;96894.69;;;8.16;85.51
31346;BME280;21711;49.708;18.568;2023-04-26T00:34:36;96890.25;;;7.90;83.33
31346;BME280;21711;49.708;18.568;2023-04-26T00:37:04;96888.94;;;7.88;86.35
31346;BME280;21711;49.708;18.568;2023-04-26T00:39:32;96891.31;;;7.58;83.94
31346;BME280;21711;49.708;18.568;2023-04-26T00:42:00;96895.50;;;7.54;83.33
31346;BME280;21711;49.708;18.568;2023-04-26T00:44:27;96891.31;;;7.79;86.03
31346;BME280;21711;49.708;18.568;2023-04-26T00:46:55;96895.25;;;7.66;85.19
31346;BME280;21711;49.708;18.568;2023-04-26T00:49:23;96897.38;;;7.85;86.40
31346;BME280;21711;49.708;18.568;2023-04-26T00:51:54;96899.72;;;7.86;82.67
31346;BME280;21711;49.708;18.568;2023-04-26T00:54:22;96902.34;;;7.86;84.16
31346;BME280;21711;49.708;18.568;2023-04-26T00:56:50;96894.72;;;7.90;85.32
31346;BME280;21711;49.708;18.568;2023-04-26T00:59:20;96897.88;;;7.92;84.40
31346;BME280;21711;49.708;18.568;2023-04-26T01:01:47;96900.00;;;7.80;84.16
31346;BME280;21711;49.708;18.568;2023-04-26T01:04:15;96903.91;;;7.72;83.61
31346;BME280;21711;49.708;18.568;2023-04-26T01:06:44;96910.75;;;7.62;84.44
31346;BME280;21711;49.708;18.568;2023-04-26T01:09:12;96903.16;;;7.61;84.23
31346;BME280;21711;49.708;18.568;2023-04-26T01:11:42;96914.69;;;7.49;84.09
31346;BME280;21711;49.708;18.568;2023-04-26T01:14:10;96911.22;;;7.23;83.09
31346;BME280;21711;49.708;18.568;2023-04-26T01:16:38;96916.50;;;7.33;84.55
31346;BME280;21711;49.708;18.568;2023-04-26T01:19:11;96919.19;;;7.44;85.21
31346;BME280;21711;49.708;18.568;2023-04-26T01:21:40;96912.88;;;7.55;83.73
31346;BME280;21711;49.708;18.568;2023-04-26T01:24:12;96912.03;;;7.23;84.79
31346;BME280;21711;49.708;18.568;2023-04-26T01:26:40;96919.09;;;7.23;84.87
31346;BME280;21711;49.708;18.568;2023-04-26T01:29:17;96918.03;;;7.19;84.52
31346;BME280;21711;49.708;18.568;2023-04-26T01:31:47;96919.69;;;7.35;85.77
31346;BME280;21711;49.708;18.568;2023-04-26T01:34:14;96920.75;;;7.40;83.71
31346;BME280;21711;49.708;18.568;2023-04-26T01:36:45;96921.22;;;7.26;85.32
31346;BME280;21711;49.708;18.568;2023-04-26T01:39:12;96914.84;;;7.01;81.43
31346;BME280;21711;49.708;18.568;2023-04-26T01:41:39;96924.06;;;7.09;84.98
31346;BME280;21711;49.708;18.568;2023-04-26T01:44:07;96926.97;;;7.07;84.24
31346;BME280;21711;49.708;18.568;2023-04-26T01:46:34;96916.94;;;7.04;86.64
31346;BME280;21711;49.708;18.568;2023-04-26T01:49:01;96926.00;;;6.65;84.78
31346;BME280;21711;49.708;18.568;2023-04-26T01:51:29;96925.38;;;6.48;84.06
31346;BME280;21711;49.708;18.568;2023-04-26T01:53:56;96930.25;;;6.77;83.67
31346;BME280;21711;49.708;18.568;2023-04-26T01:56:24;96921.81;;;6.75;85.76
31346;BME280;21711;49.708;18.568;2023-04-26T01:58:52;96920.59;;;6.44;83.73
31346;BME280;21711;49.708;18.568;2023-04-26T02:01:22;96918.88;;;6.66;84.86
31346;BME280;21711;49.708;18.568;2023-04-26T02:03:50;96924.81;;;6.45;82.96
31346;BME280;21711;49.708;18.568;2023-04-26T02:06:19;96919.84;;;6.44;84.47
31346;BME280;21711;49.708;18.568;2023-04-26T02:08:47;96913.97;;;6.31;84.89
31346;BME280;21711;49.708;18.568;2023-04-26T02:11:15;96922.03;;;6.20;84.02
31346;BME280;21711;49.708;18.568;2023-04-26T02:13:43;96910.31;;;6.00;85.13
31346;BME280;21711;49.708;18.568;2023-04-26T02:16:10;96918.72;;;6.02;84.67
31346;BME280;21711;49.708;18.568;2023-04-26T02:18:37;96917.53;;;6.15;87.06
31346;BME280;21711;49.708;18.568;2023-04-26T02:21:07;96915.53;;;5.95;85.24
31346;BME280;21711;49.708;18.568;2023-04-26T02:23:35;96920.91;;;5.77;86.43
31346;BME280;21711;49.708;18.568;2023-04-26T02:26:03;96920.47;;;5.91;87.34
31346;BME280;21711;49.708;18.568;2023-04-26T02:28:30;96928.91;;;5.93;88.39
31346;BME280;21711;49.708;18.568;2023-04-26T02:30:58;96931.41;;;5.77;87.79
31346;BME280;21711;49.708;18.568;2023-04-26T02:33:25;96929.00;;;5.48;88.35
31346;BME280;21711;49.708;18.568;2023-04-26T02:35:53;96931.81;;;5.42;89.29
31346;BME280;21711;49.708;18.568;2023-04-26T02:38:20;96929.56;;;5.50;87.98
31346;BME280;21711;49.708;18.568;2023-04-26T02:40:48;96928.66;;;5.67;88.90
31346;BME280;21711;49.708;18.568;2023-04-26T02:43:16;96935.72;;;5.61;88.75
31346;BME280;21711;49.708;18.568;2023-04-26T02:45:44;96934.97;;;5.38;88.90
31346;BME280;21711;49.708;18.568;2023-04-26T02:48:13;96928.75;;;5.22;90.90
31346;BME280;21711;49.708;18.568;2023-04-26T02:50:40;96928.84;;;5.33;90.22
31346;BME280;21711;49.708;18.568;2023-04-26T02:53:08;96924.75;;;5.42;88.37
31346;BME280;21711;49.708;18.568;2023-04-26T02:55:38;96930.72;;;5.32;88.91
31346;BME280;21711;49.708;18.568;2023-04-26T02:58:05;96928.31;;;5.31;89.27
31346;BME280;21711;49.708;18.568;2023-04-26T03:00:32;96932.72;;;5.25;90.04
31346;BME280;21711;49.708;18.568;2023-04-26T03:03:00;96937.03;;;5.36;91.60
31346;BME280;21711;49.708;18.568;2023-04-26T03:05:29;96944.31;;;5.57;90.30
31346;BME280;21711;49.708;18.568;2023-04-26T03:07:56;96940.53;;;5.20;88.96
31346;BME280;21711;49.708;18.568;2023-04-26T03:10:24;96940.41;;;5.09;88.84
31346;BME280;21711;49.708;18.568;2023-04-26T03:12:51;96944.84;;;5.09;89.33
31346;BME280;21711;49.708;18.568;2023-04-26T03:15:19;96943.38;;;5.18;89.09
31346;BME280;21711;49.708;18.568;2023-04-26T03:17:46;96948.84;;;5.39;87.98
31346;BME280;21711;49.708;18.568;2023-04-26T03:20:14;96943.69;;;5.22;88.19
31346;BME280;21711;49.708;18.568;2023-04-26T03:22:42;96947.97;;;5.28;88.61
31346;BME280;21711;49.708;18.568;2023-04-26T03:25:09;96949.25;;;5.25;88.25
31346;BME280;21711;49.708;18.568;2023-04-26T03:27:36;96946.53;;;5.20;88.65
31346;BME280;21711;49.708;18.568;2023-04-26T03:30:05;96946.03;;;4.96;88.99
31346;BME280;21711;49.708;18.568;2023-04-26T03:32:34;96949.91;;;5.16;89.78
31346;BME280;21711;49.708;18.568;2023-04-26T03:35:02;96953.13;;;5.00;88.99
31346;BME280;21711;49.708;18.568;2023-04-26T03:37:31;96953.47;;;5.04;89.70
31346;BME280;21711;49.708;18.568;2023-04-26T03:40:03;96956.31;;;5.03;89.24
31346;BME280;21711;49.708;18.568;2023-04-26T03:42:34;96957.66;;;4.83;90.30
31346;BME280;21711;49.708;18.568;2023-04-26T03:45:03;96954.09;;;4.72;91.05
31346;BME280;21711;49.708;18.568;2023-04-26T03:47:30;96960.41;;;4.93;90.93
31346;BME280;21711;49.708;18.568;2023-04-26T03:49:58;96956.31;;;5.03;89.40
31346;BME280;21711;49.708;18.568;2023-04-26T03:52:25;96962.97;;;5.10;89.34
31346;BME280;21711;49.708;18.568;2023-04-26T03:54:53;96965.53;;;4.83;87.55
31346;BME280;21711;49.708;18.568;2023-04-26T03:57:21;96971.00;;;4.81;88.17
31346;BME280;21711;49.708;18.568;2023-04-26T03:59:49;96977.28;;;5.03;88.63
31346;BME280;21711;49.708;18.568;2023-04-26T04:02:16;96974.59;;;4.97;87.13
31346;BME280;21711;49.708;18.568;2023-04-26T04:04:44;96975.44;;;4.81;87.40
31346;BME280;21711;49.708;18.568;2023-04-26T04:07:11;96973.97;;;5.12;87.01
31346;BME280;21711;49.708;18.568;2023-04-26T04:09:39;96990.56;;;5.18;87.23
31346;BME280;21711;49.708;18.568;2023-04-26T04:12:07;96991.31;;;5.36;85.09
31346;BME280;21711;49.708;18.568;2023-04-26T04:14:34;96986.31;;;5.34;84.72
31346;BME280;21711;49.708;18.568;2023-04-26T04:17:02;96990.75;;;5.34;85.64
31346;BME280;21711;49.708;18.568;2023-04-26T04:19:31;96992.16;;;5.42;84.33
31346;BME280;21711;49.708;18.568;2023-04-26T04:21:58;96994.91;;;5.52;83.97
31346;BME280;21711;49.708;18.568;2023-04-26T04:24:26;96995.22;;;6.11;83.31
31346;BME280;21711;49.708;18.568;2023-04-26T04:26:53;96999.34;;;6.34;80.92
31346;BME280;21711;49.708;18.568;2023-04-26T04:29:22;97002.03;;;6.44;78.30
31346;BME280;21711;49.708;18.568;2023-04-26T04:31:50;97005.97;;;6.42;77.37
31346;BME280;21711;49.708;18.568;2023-04-26T04:34:17;97003.00;;;6.71;76.96
31346;BME280;21711;49.708;18.568;2023-04-26T04:36:45;97001.09;;;7.04;74.57
31346;BME280;21711;49.708;18.568;2023-04-26T04:39:13;97002.31;;;7.45;73.32
31346;BME280;21711;49.708;18.568;2023-04-26T04:41:43;97014.84;;;8.22;71.20
31346;BME280;21711;49.708;18.568;2023-04-26T04:44:17;97014.03;;;8.27;68.97
31346;BME280;21711;49.708;18.568;2023-04-26T04:46:44;97009.31;;;8.34;70.44
31346;BME280;21711;49.708;18.568;2023-04-26T04:49:13;97015.34;;;8.71;67.08
31346;BME280;21711;49.708;18.568;2023-04-26T04:51:41;97014.81;;;8.85;66.45
31346;BME280;21711;49.708;18.568;2023-04-26T04:54:15;97018.78;;;8.40;68.43
31346;BME280;21711;49.708;18.568;2023-04-26T04:56:45;97021.69;;;8.28;69.05
31346;BME280;21711;49.708;18.568;2023-04-26T04:59:13;97025.09;;;8.50;67.99
31346;BME280;21711;49.708;18.568;2023-04-26T05:01:41;97031.06;;;9.18;65.76
31346;BME280;21711;49.708;18.568;2023-04-26T05:04:12;97027.50;;;9.54;65.16
31346;BME280;21711;49.708;18.568;2023-04-26T05:06:41;97029.09;;;9.50;64.65
31346;BME280;21711;49.708;18.568;2023-04-26T05:09:09;97030.91;;;9.59;63.21
31346;BME280;21711;49.708;18.568;2023-04-26T05:11:37;97031.84;;;10.24;62.15
31346;BME280;21711;49.708;18.568;2023-04-26T05:14:06;97038.84;;;10.05;62.73
31346;BME280;21711;49.708;18.568;2023-04-26T05:16:34;97045.38;;;10.58;60.86
31346;BME280;21711;49.708;18.568;2023-04-26T05:19:02;97039.13;;;11.02;58.18
31346;BME280;21711;49.708;18.568;2023-04-26T05:21:30;97041.88;;;11.41;59.10
31346;BME280;21711;49.708;18.568;2023-04-26T05:23:58;97047.75;;;12.01;56.50
31346;BME280;21711;49.708;18.568;2023-04-26T05:26:25;97053.91;;;11.96;54.55
31346;BME280;21711;49.708;18.568;2023-04-26T05:29:11;97050.97;;;11.97;54.44
31346;BME280;21711;49.708;18.568;2023-04-26T05:31:58;97050.66;;;11.61;54.03
31346;BME280;21711;49.708;18.568;2023-04-26T05:34:32;97067.06;;;13.06;49.11
31346;BME280;21711;49.708;18.568;2023-04-26T05:36:59;97052.13;;;12.30;50.81
31346;BME280;21711;49.708;18.568;2023-04-26T05:39:27;97062.84;;;13.61;48.91
31346;BME280;21711;49.708;18.568;2023-04-26T05:41:55;97070.47;;;12.93;49.10
31346;BME280;21711;49.708;18.568;2023-04-26T05:44:22;97065.91;;;13.68;47.61
31346;BME280;21711;49.708;18.568;2023-04-26T05:46:49;97065.47;;;13.89;44.76
31346;BME280;21711;49.708;18.568;2023-04-26T05:49:17;97072.06;;;15.06;45.86
31346;BME280;21711;49.708;18.568;2023-04-26T05:51:44;97078.56;;;15.72;42.88
31346;BME280;21711;49.708;18.568;2023-04-26T05:54:11;97077.59;;;15.10;41.91
31346;BME280;21711;49.708;18.568;2023-04-26T05:56:39;97074.97;;;15.28;43.44
31346;BME280;21711;49.708;18.568;2023-04-26T05:59:07;97085.00;;;15.22;42.81
31346;BME280;21711;49.708;18.568;2023-04-26T06:01:35;97077.34;;;15.29;42.53
31346;BME280;21711;49.708;18.568;2023-04-26T06:04:02;97082.13;;;15.59;43.28
31346;BME280;21711;49.708;18.568;2023-04-26T06:06:39;97080.13;;;15.73;43.38
31346;BME280;21711;49.708;18.568;2023-04-26T06:09:06;97090.16;;;15.68;42.97
31346;BME280;21711;49.708;18.568;2023-04-26T06:11:35;97090.41;;;16.15;40.03
31346;BME280;21711;49.708;18.568;2023-04-26T06:14:02;97091.03;;;16.48;40.77
31346;BME280;21711;49.708;18.568;2023-04-26T06:16:30;97096.13;;;17.45;39.57
31346;BME280;21711;49.708;18.568;2023-04-26T06:18:57;97094.94;;;17.64;39.48
31346;BME280;21711;49.708;18.568;2023-04-26T06:21:24;97091.53;;;17.54;37.72
31346;BME280;21711;49.708;18.568;2023-04-26T06:23:52;97089.34;;;18.08;36.85
31346;BME280;21711;49.708;18.568;2023-04-26T06:26:23;97089.25;;;18.59;35.65
31346;BME280;21711;49.708;18.568;2023-04-26T06:28:50;97083.38;;;17.51;37.38
31346;BME280;21711;49.708;18.568;2023-04-26T06:31:18;97088.22;;;17.18;38.28
31346;BME280;21711;49.708;18.568;2023-04-26T06:33:48;97085.19;;;16.72;39.68
31346;BME280;21711;49.708;18.568;2023-04-26T06:36:17;97082.09;;;17.87;37.86
31346;BME280;21711;49.708;18.568;2023-04-26T06:38:44;97088.53;;;18.84;35.75
31346;BME280;21711;49.708;18.568;2023-04-26T06:41:12;97082.94;;;17.09;37.08
31346;BME280;21711;49.708;18.568;2023-04-26T06:43:39;97078.47;;;14.96;40.69
31346;BME280;21711;49.708;18.568;2023-04-26T06:46:18;97074.84;;;13.17;46.56
31346;BME280;21711;49.708;18.568;2023-04-26T06:48:54;97073.16;;;12.59;49.63
31346;BME280;21711;49.708;18.568;2023-04-26T06:51:24;97075.72;;;13.40;47.35
31346;BME280;21711;49.708;18.568;2023-04-26T06:53:51;97081.72;;;13.04;47.05
31346;BME280;21711;49.708;18.568;2023-04-26T06:56:19;97076.31;;;13.09;48.91
31346;BME280;21711;49.708;18.568;2023-04-26T06:59:03;97083.47;;;13.08;49.65
31346;BME280;21711;49.708;18.568;2023-04-26T07:01:33;97080.50;;;13.57;48.31
31346;BME280;21711;49.708;18.568;2023-04-26T07:04:05;97088.03;;;12.41;50.63
31346;BME280;21711;49.708;18.568;2023-04-26T07:06:35;97086.44;;;11.09;54.76
31346;BME280;21711;49.708;18.568;2023-04-26T07:09:03;97095.22;;;13.49;49.74
31346;BME280;21711;49.708;18.568;2023-04-26T07:11:31;97102.81;;;16.64;40.76
31346;BME280;21711;49.708;18.568;2023-04-26T07:13:58;97110.81;;;18.63;37.72
31346;BME280;21711;49.708;18.568;2023-04-26T07:16:25;97103.50;;;17.09;39.43
31346;BME280;21711;49.708;18.568;2023-04-26T07:18:53;97102.41;;;15.69;41.35
31346;BME280;21711;49.708;18.568;2023-04-26T07:21:24;97112.78;;;17.51;40.46
31346;BME280;21711;49.708;18.568;2023-04-26T07:23:56;97120.38;;;20.06;34.41
31346;BME280;21711;49.708;18.568;2023-04-26T07:26:25;97123.03;;;21.53;31.69
31346;BME280;21711;49.708;18.568;2023-04-26T07:28:53;97110.75;;;19.55;34.27
31346;BME280;21711;49.708;18.568;2023-04-26T07:31:20;97118.22;;;20.53;33.95
31346;BME280;21711;49.708;18.568;2023-04-26T07:33:47;97119.19;;;17.58;36.68
31346;BME280;21711;49.708;18.568;2023-04-26T07:36:15;97104.44;;;15.72;41.08
31346;BME280;21711;49.708;18.568;2023-04-26T07:38:42;97104.16;;;12.78;47.41
31346;BME280;21711;49.708;18.568;2023-04-26T07:41:09;97096.13;;;11.43;51.53
31346;BME280;21711;49.708;18.568;2023-04-26T07:43:38;97089.66;;;11.30;53.43
31346;BME280;21711;49.708;18.568;2023-04-26T07:46:06;97108.44;;;16.01;43.83
31346;BME280;21711;49.708;18.568;2023-04-26T07:48:33;97116.88;;;19.93;35.34
31346;BME280;21711;49.708;18.568;2023-04-26T07:51:10;97121.25;;;20.10;33.30
31346;BME280;21711;49.708;18.568;2023-04-26T07:53:39;97118.13;;;16.94;38.59
31346;BME280;21711;49.708;18.568;2023-04-26T07:56:07;97104.00;;;13.64;45.98
31346;BME280;21711;49.708;18.568;2023-04-26T07:58:36;97100.94;;;12.09;49.51
31346;BME280;21711;49.708;18.568;2023-04-26T08:01:05;97102.94;;;11.25;52.27
31346;BME280;21711;49.708;18.568;2023-04-26T08:03:33;97105.78;;;10.35;55.48
31346;BME280;21711;49.708;18.568;2023-04-26T08:06:01;97099.63;;;9.99;55.81
31346;BME280;21711;49.708;18.568;2023-04-26T08:08:28;97112.72;;;15.21;45.22
31346;BME280;21711;49.708;18.568;2023-04-26T08:10:56;97120.91;;;17.15;38.83
31346;BME280;21711;49.708;18.568;2023-04-26T08:13:23;97120.78;;;14.61;42.54
31346;BME280;21711;49.708;18.568;2023-04-26T08:15:54;97118.06;;;14.52;44.65
31346;BME280;21711;49.708;18.568;2023-04-26T08:18:21;97132.59;;;14.09;45.10
31346;BME280;21711;49.708;18.568;2023-04-26T08:20:49;97113.25;;;12.39;48.25
31346;BME280;21711;49.708;18.568;2023-04-26T08:23:16;97110.53;;;11.08;53.31
31346;BME280;21711;49.708;18.568;2023-04-26T08:25:45;97111.75;;;11.15;52.74
31346;BME280;21711;49.708;18.568;2023-04-26T08:28:14;97116.91;;;11.55;53.15
31346;BME280;21711;49.708;18.568;2023-04-26T08:30:42;97112.28;;;11.42;50.46
31346;BME280;21711;49.708;18.568;2023-04-26T08:33:09;97119.78;;;12.08;48.58
31346;BME280;21711;49.708;18.568;2023-04-26T08:35:37;97118.81;;;11.99;48.32
31346;BME280;21711;49.708;18.568;2023-04-26T08:38:04;97120.31;;;14.59;44.02
31346;BME280;21711;49.708;18.568;2023-04-26T08:40:31;97121.56;;;15.88;42.83
31346;BME280;21711;49.708;18.568;2023-04-26T08:42:59;97128.84;;;14.10;44.47
31346;BME280;21711;49.708;18.568;2023-04-26T08:45:26;97124.09;;;12.75;45.67
31346;BME280;21711;49.708;18.568;2023-04-26T08:48:02;97134.88;;;12.65;45.56
31346;BME280;21711;49.708;18.568;2023-04-26T08:50:32;97138.72;;;13.81;44.95
31346;BME280;21711;49.708;18.568;2023-04-26T08:53:00;97161.34;;;17.14;38.54
31346;BME280;21711;49.708;18.568;2023-04-26T08:55:28;97161.06;;;20.08;31.40
31346;BME280;21711;49.708;18.568;2023-04-26T08:57:56;97154.47;;;20.88;30.96
31346;BME280;21711;49.708;18.568;2023-04-26T09:00:24;97165.22;;;24.13;28.12
31346;BME280;21711;49.708;18.568;2023-04-26T09:02:52;97156.81;;;23.41;25.63
31346;BME280;21711;49.708;18.568;2023-04-26T09:05:21;97154.34;;;18.72;30.64
31346;BME280;21711;49.708;18.568;2023-04-26T09:07:58;97152.22;;;20.08;31.30
31346;BME280;21711;49.708;18.568;2023-04-26T09:10:26;97147.63;;;18.66;32.33
31346;BME280;21711;49.708;18.568;2023-04-26T09:12:54;97156.88;;;20.93;29.38
31346;BME280;21711;49.708;18.568;2023-04-26T09:15:24;97151.94;;;22.44;25.94
31346;BME280;21711;49.708;18.568;2023-04-26T09:17:52;97159.09;;;22.95;26.17
31346;BME280;21711;49.708;18.568;2023-04-26T09:20:30;97159.09;;;23.38;24.74
31346;BME280;21711;49.708;18.568;2023-04-26T09:23:06;97143.00;;;20.21;28.57
31346;BME280;21711;49.708;18.568;2023-04-26T09:25:35;97141.06;;;17.52;31.20
31346;BME280;21711;49.708;18.568;2023-04-26T09:28:18;97132.56;;;15.46;35.20
31346;BME280;21711;49.708;18.568;2023-04-26T09:30:45;97132.66;;;14.18;37.55
31346;BME280;21711;49.708;18.568;2023-04-26T09:33:13;97135.41;;;15.50;34.86
31346;BME280;21711;49.708;18.568;2023-04-26T09:35:42;97134.31;;;16.98;33.83
31346;BME280;21711;49.708;18.568;2023-04-26T09:38:17;97148.19;;;21.12;29.34
31346;BME280;21711;49.708;18.568;2023-04-26T09:40:48;97140.50;;;17.76;32.08
31346;BME280;21711;49.708;18.568;2023-04-26T09:48:33;97128.34;;;14.08;37.46
31346;BME280;21711;49.708;18.568;2023-04-26T09:51:09;97124.84;;;15.04;35.77
31346;BME280;21711;49.708;18.568;2023-04-26T09:53:41;97131.97;;;18.56;30.49
31346;BME280;21711;49.708;18.568;2023-04-26T09:56:18;97142.03;;;20.55;26.99
31346;BME280;21711;49.708;18.568;2023-04-26T10:01:17;97139.94;;;22.81;24.12
31346;BME280;21711;49.708;18.568;2023-04-26T10:03:46;97114.34;;;20.38;25.11
31346;BME280;21711;49.708;18.568;2023-04-26T10:06:14;97131.25;;;18.25;28.30
31346;BME280;21711;49.708;18.568;2023-04-26T10:08:43;97133.88;;;19.97;26.54
31346;BME280;21711;49.708;18.568;2023-04-26T10:11:11;97142.41;;;23.56;23.77
31346;BME280;21711;49.708;18.568;2023-04-26T10:13:40;97139.28;;;23.07;24.00
31346;BME280;21711;49.708;18.568;2023-04-26T10:16:08;97139.94;;;23.24;24.37
31346;BME280;21711;49.708;18.568;2023-04-26T10:18:36;97137.63;;;18.54;26.30
31346;BME280;21711;49.708;18.568;2023-04-26T10:21:26;97116.59;;;16.22;29.66
31346;BME280;21711;49.708;18.568;2023-04-26T10:23:55;97116.41;;;14.19;33.14
31346;BME280;21711;49.708;18.568;2023-04-26T10:26:48;97115.31;;;13.56;33.86
31346;BME280;21711;49.708;18.568;2023-04-26T10:29:16;97127.75;;;12.80;37.91
31346;BME280;21711;49.708;18.568;2023-04-26T10:32:13;97108.00;;;12.53;38.24
31346;BME280;21711;49.708;18.568;2023-04-26T10:34:44;97118.69;;;12.67;36.51
31346;BME280;21711;49.708;18.568;2023-04-26T10:37:31;97119.69;;;12.13;36.88
31346;BME280;21711;49.708;18.568;2023-04-26T10:40:22;97120.25;;;12.48;38.58
31346;BME280;21711;49.708;18.568;2023-04-26T10:42:51;97116.91;;;12.43;36.09
31346;BME280;21711;49.708;18.568;2023-04-26T10:45:46;97110.38;;;12.35;38.58
31346;BME280;21711;49.708;18.568;2023-04-26T10:48:30;97118.03;;;11.74;38.82
31346;BME280;21711;49.708;18.568;2023-04-26T10:59:13;97116.97;;;11.75;40.87
31346;BME280;21711;49.708;18.568;2023-04-26T11:01:44;97119.63;;;11.75;41.26
31346;BME280;21711;49.708;18.568;2023-04-26T11:04:12;97116.63;;;11.81;38.71
31346;BME280;21711;49.708;18.568;2023-04-26T11:06:50;97109.56;;;12.87;38.16
31346;BME280;21711;49.708;18.568;2023-04-26T11:09:38;97108.66;;;13.39;37.42
31346;BME280;21711;49.708;18.568;2023-04-26T11:12:12;97110.66;;;13.33;36.89
31346;BME280;21711;49.708;18.568;2023-04-26T11:14:44;97103.16;;;12.74;39.24
31346;BME280;21711;49.708;18.568;2023-04-26T11:17:12;97109.53;;;13.20;37.09
31346;BME280;21711;49.708;18.568;2023-04-26T11:19:45;97109.84;;;14.63;35.52
31346;BME280;21711;49.708;18.568;2023-04-26T11:22:13;97118.66;;;14.49;35.95
31346;BME280;21711;49.708;18.568;2023-04-26T11:24:42;97118.22;;;13.26;36.15
31346;BME280;21711;49.708;18.568;2023-04-26T11:27:10;97121.31;;;13.00;36.19
31346;BME280;21711;49.708;18.568;2023-04-26T11:29:38;97117.06;;;12.85;37.42
31346;BME280;21711;49.708;18.568;2023-04-26T11:32:06;97121.06;;;11.86;37.86
31346;BME280;21711;49.708;18.568;2023-04-26T11:34:36;97108.81;;;11.90;38.49
31346;BME280;21711;49.708;18.568;2023-04-26T11:37:07;97110.72;;;12.28;38.08
31346;BME280;21711;49.708;18.568;2023-04-26T11:39:36;97109.13;;;12.66;38.38
31346;BME280;21711;49.708;18.568;2023-04-26T11:42:07;97117.47;;;12.40;37.34
31346;BME280;21711;49.708;18.568;2023-04-26T11:44:38;97110.63;;;12.72;38.02
31346;BME280;21711;49.708;18.568;2023-04-26T11:47:06;97131.97;;;13.14;37.65
31346;BME280;21711;49.708;18.568;2023-04-26T11:49:37;97122.28;;;13.04;38.53
31346;BME280;21711;49.708;18.568;2023-04-26T11:52:05;97123.06;;;12.57;38.23
31346;BME280;21711;49.708;18.568;2023-04-26T11:54:34;97119.81;;;12.94;38.14
31346;BME280;21711;49.708;18.568;2023-04-26T11:57:13;97133.94;;;12.56;38.96
31346;BME280;21711;49.708;18.568;2023-04-26T11:59:44;97131.59;;;11.18;39.94
31346;BME280;21711;49.708;18.568;2023-04-26T12:02:11;97132.03;;;12.42;39.37
31346;BME280;21711;49.708;18.568;2023-04-26T12:04:39;97119.59;;;12.38;38.94
31346;BME280;21711;49.708;18.568;2023-04-26T12:07:08;97124.19;;;12.70;41.07
31346;BME280;21711;49.708;18.568;2023-04-26T12:09:40;97125.22;;;12.88;39.06
31346;BME280;21711;49.708;18.568;2023-04-26T12:12:10;97131.00;;;12.57;38.77
31346;BME280;21711;49.708;18.568;2023-04-26T12:14:39;97143.34;;;11.85;40.04
31346;BME280;21711;49.708;18.568;2023-04-26T12:17:06;97151.97;;;10.88;44.65
31346;BME280;21711;49.708;18.568;2023-04-26T12:19:35;97135.09;;;11.13;41.41
31346;BME280;21711;49.708;18.568;2023-04-26T12:22:04;97138.56;;;11.09;43.05
31346;BME280;21711;49.708;18.568;2023-04-26T12:24:33;97132.25;;;11.58;43.29
31346;BME280;21711;49.708;18.568;2023-04-26T12:27:04;97136.16;;;12.10;41.34
31346;BME280;21711;49.708;18.568;2023-04-26T12:29:35;97134.88;;;12.46;41.91
31346;BME280;21711;49.708;18.568;2023-04-26T12:32:02;97137.88;;;12.58;40.04
31346;BME280;21711;49.708;18.568;2023-04-26T12:34:30;97137.44;;;12.70;39.44
31346;BME280;21711;49.708;18.568;2023-04-26T12:36:58;97134.72;;;12.75;38.54
31346;BME280;21711;49.708;18.568;2023-04-26T12:39:25;97136.97;;;12.30;39.45
31346;BME280;21711;49.708;18.568;2023-04-26T12:41:52;97138.47;;;12.36;38.49
31346;BME280;21711;49.708;18.568;2023-04-26T12:44:21;97141.91;;;11.93;40.59
31346;BME280;21711;49.708;18.568;2023-04-26T12:46:48;97138.63;;;11.57;42.33
31346;BME280;21711;49.708;18.568;2023-04-26T12:49:16;97150.69;;;11.15;41.93
31346;BME280;21711;49.708;18.568;2023-04-26T12:51:43;97158.69;;;11.34;41.95
31346;BME280;21711;49.708;18.568;2023-04-26T12:54:10;97165.31;;;10.72;45.18
31346;BME280;21711;49.708;18.568;2023-04-26T12:56:38;97173.69;;;10.34;49.91
31346;BME280;21711;49.708;18.568;2023-04-26T12:59:10;97168.00;;;10.67;52.67
31346;BME280;21711;49.708;18.568;2023-04-26T13:01:37;97164.09;;;10.54;50.61
31346;BME280;21711;49.708;18.568;2023-04-26T13:04:04;97155.31;;;10.64;49.62
31346;BME280;21711;49.708;18.568;2023-04-26T13:06:33;97155.84;;;10.61;48.91
31346;BME280;21711;49.708;18.568;2023-04-26T13:09:01;97153.75;;;10.63;48.03
31346;BME280;21711;49.708;18.568;2023-04-26T13:11:28;97154.47;;;11.33;47.91
31346;BME280;21711;49.708;18.568;2023-04-26T13:13:55;97160.84;;;11.56;47.45
31346;BME280;21711;49.708;18.568;2023-04-26T13:16:23;97153.56;;;11.48;48.02
31346;BME280;21711;49.708;18.568;2023-04-26T13:18:50;97159.38;;;11.94;47.07
31346;BME280;21711;49.708;18.568;2023-04-26T13:21:17;97159.53;;;12.27;47.27
31346;BME280;21711;49.708;18.568;2023-04-26T13:23:45;97162.63;;;12.54;45.21